createdAt,value
2022-08-08T00:02:30.361Z,54.11
2022-08-08T00:07:25.799Z,54.10
2022-08-08T00:12:31.343Z,54.27
2022-08-08T00:18:01.788Z,54.85
2022-08-08T00:23:06.371Z,54.95
2022-08-08T00:28:08.264Z,54.94
2022-08-08T00:34:17.500Z,55.44
2022-08-08T00:38:56.212Z,55.43
2022-08-08T00:44:18.324Z,55.42
2022-08-08T00:49:37.119Z,55.50
2022-08-08T00:54:50.001Z,55.42
2022-08-08T01:00:06.478Z,55.72
2022-08-08T01:05:58.394Z,55.89
2022-08-08T01:11:31.243Z,56.19
2022-08-08T01:17:09.099Z,56.33
2022-08-08T01:22:32.422Z,56.66
2022-08-08T01:28:15.697Z,57.19
2022-08-08T01:34:00.772Z,57.20
2022-08-08T01:39:23.391Z,57.50
2022-08-08T01:44:36.774Z,57.76
2022-08-08T01:49:47.737Z,58.25
2022-08-08T01:55:45.333Z,58.44
2022-08-08T02:00:33.847Z,58.48
2022-08-08T02:05:55.921Z,58.78
2022-08-08T02:11:07.295Z,59.01
2022-08-08T02:16:34.222Z,59.40
2022-08-08T02:22:03.234Z,59.61
2022-08-08T02:27:07.260Z,60.02
2022-08-08T02:32:26.259Z,59.96
2022-08-08T02:37:53.505Z,60.16
2022-08-08T02:44:35.859Z,60.84
2022-08-08T02:49:35.897Z,61.25
2022-08-08T02:55:04.932Z,61.63
2022-08-08T03:00:34.569Z,61.86
2022-08-08T03:06:11.825Z,62.04
2022-08-08T03:12:14.090Z,62.29
2022-08-08T03:17:25.597Z,62.11
2022-08-08T03:22:38.164Z,62.27
2022-08-08T03:27:56.679Z,61.72
2022-08-08T03:33:56.972Z,60.96
2022-08-08T03:38:54.881Z,60.63
2022-08-08T03:44:00.888Z,60.91
2022-08-08T03:49:38.240Z,60.62
2022-08-08T03:54:52.043Z,60.58
2022-08-08T03:59:59.644Z,60.28
2022-08-08T04:05:04.547Z,60.41
2022-08-08T04:10:10.384Z,60.32
2022-08-08T04:15:16.113Z,60.39
2022-08-08T04:20:14.578Z,60.29
2022-08-08T04:25:13.103Z,60.27
2022-08-08T04:30:17.943Z,60.03
2022-08-08T04:35:20.392Z,59.62
2022-08-08T04:40:23.912Z,59.36
2022-08-08T04:45:25.712Z,58.85
2022-08-08T04:50:28.261Z,58.50
2022-08-08T04:55:55.530Z,58.49
2022-08-08T05:00:55.807Z,58.34
2022-08-08T05:05:53.932Z,57.97
2022-08-08T05:10:53.808Z,57.58
2022-08-08T05:16:49.370Z,57.59
2022-08-08T05:21:09.453Z,58.05
2022-08-08T05:26:14.229Z,57.82
2022-08-08T05:32:02.296Z,57.35
2022-08-08T05:36:35.287Z,57.16
2022-08-08T05:41:54.985Z,54.82
2022-08-08T05:47:03.227Z,50.42
2022-08-08T05:52:03.246Z,47.77
2022-08-08T05:57:06.985Z,44.05
2022-08-08T06:02:27.388Z,42.02
2022-08-08T06:07:26.034Z,41.06
2022-08-08T06:12:30.699Z,40.47
2022-08-08T06:17:50.754Z,40.44
2022-08-08T06:22:53.935Z,39.76
2022-08-08T06:28:00.624Z,38.80
2022-08-08T06:33:01.377Z,37.75
2022-08-08T06:38:14.093Z,37.57
2022-08-08T06:43:20.905Z,37.01
2022-08-08T06:48:30.360Z,36.97
2022-08-08T06:53:39.431Z,37.14
2022-08-08T06:58:41.402Z,36.41
2022-08-08T07:04:35.588Z,36.44
2022-08-08T07:10:02.580Z,35.65
2022-08-08T07:16:04.697Z,34.81
2022-08-08T07:21:04.973Z,34.51
2022-08-08T07:26:05.881Z,33.93
2022-08-08T07:31:05.554Z,33.35
2022-08-08T07:36:08.110Z,31.79
2022-08-08T07:41:09.250Z,29.86
2022-08-08T07:46:30.501Z,27.80
2022-08-08T07:51:45.295Z,28.50
2022-08-08T07:57:17.142Z,29.00
2022-08-08T08:02:36.802Z,28.98
2022-08-08T08:07:39.257Z,29.21
2022-08-08T08:19:24.843Z,28.71
2022-08-08T08:24:32.610Z,29.40
2022-08-08T08:29:35.714Z,28.43
2022-08-08T08:34:54.718Z,28.73
2022-08-08T08:40:01.028Z,27.85
2022-08-08T08:45:23.519Z,28.08
2022-08-08T08:50:33.050Z,28.68
2022-08-08T08:56:06.783Z,28.89
2022-08-08T09:01:13.281Z,28.91
2022-08-08T09:06:26.640Z,29.43
2022-08-08T09:12:02.235Z,27.95
2022-08-08T09:17:31.531Z,26.85
2022-08-08T09:22:39.473Z,27.65
2022-08-08T09:27:56.656Z,26.55
2022-08-08T09:34:06.176Z,26.48
2022-08-08T09:38:52.008Z,26.38
2022-08-08T09:44:06.396Z,26.37
2022-08-08T09:49:42.536Z,26.22
2022-08-08T09:55:31.131Z,26.86
2022-08-08T10:00:59.001Z,27.45
2022-08-08T10:12:27.880Z,27.44
2022-08-08T10:17:57.378Z,27.37
2022-08-08T10:23:20.844Z,26.52
2022-08-08T10:28:39.956Z,24.80
2022-08-08T10:34:18.155Z,26.24
2022-08-08T10:39:54.408Z,26.26
2022-08-08T10:45:01.676Z,27.31
2022-08-08T10:50:03.380Z,27.79
2022-08-08T10:55:07.034Z,29.60
2022-08-08T11:00:09.160Z,30.13
2022-08-08T11:05:18.250Z,31.08
2022-08-08T11:10:19.774Z,30.90
2022-08-08T11:15:30.607Z,31.43
2022-08-08T11:20:29.206Z,31.26
2022-08-08T11:25:43.618Z,31.58
2022-08-08T11:30:50.293Z,30.59
2022-08-08T11:35:52.533Z,30.57
2022-08-08T11:41:04.854Z,30.90
2022-08-08T11:46:28.250Z,31.52
2022-08-08T11:51:39.767Z,30.23
2022-08-08T11:57:14.326Z,30.51
2022-08-08T12:02:31.137Z,29.26
2022-08-08T12:07:29.685Z,29.15
2022-08-08T12:12:34.945Z,29.60
2022-08-08T12:17:44.374Z,28.31
2022-08-08T12:22:51.113Z,28.15
2022-08-08T12:27:52.030Z,30.12
2022-08-08T12:33:00.183Z,28.66
2022-08-08T12:38:06.859Z,28.24
2022-08-08T12:43:12.408Z,28.60
2022-08-08T12:48:37.549Z,28.52
2022-08-08T12:53:42.341Z,29.38
2022-08-08T13:05:25.720Z,27.92
2022-08-08T13:11:22.792Z,27.70
2022-08-08T13:16:30.926Z,27.67
2022-08-08T13:21:48.941Z,26.61
2022-08-08T13:26:48.238Z,26.72
2022-08-08T13:32:47.967Z,26.97
2022-08-08T13:38:13.237Z,26.22
2022-08-08T13:43:11.368Z,25.84
2022-08-08T13:48:13.017Z,26.30
2022-08-08T13:53:31.823Z,25.86
2022-08-08T13:58:57.481Z,25.72
2022-08-08T14:04:05.165Z,25.95
2022-08-08T14:10:05.253Z,25.07
2022-08-08T14:15:11.026Z,25.42
2022-08-08T14:20:56.058Z,25.39
2022-08-08T14:26:10.341Z,24.84
2022-08-08T14:31:20.795Z,25.45
2022-08-08T14:36:39.679Z,24.87
2022-08-08T14:41:53.751Z,25.11
2022-08-08T14:47:16.924Z,24.15
2022-08-08T14:52:21.948Z,23.63
2022-08-08T14:58:06.134Z,24.11
2022-08-08T15:03:15.007Z,24.08
2022-08-08T15:08:22.159Z,23.97
2022-08-08T15:13:40.327Z,24.23
2022-08-08T15:19:02.594Z,23.75
2022-08-08T15:24:01.002Z,24.25
2022-08-08T15:29:17.075Z,24.48
2022-08-08T15:34:59.916Z,24.29
2022-08-08T15:40:15.241Z,24.45
2022-08-08T15:45:17.939Z,25.09
2022-08-08T15:50:52.007Z,24.93
2022-08-08T15:56:27.985Z,24.87
2022-08-08T16:07:52.368Z,25.37
2022-08-08T16:13:29.998Z,25.45
2022-08-08T16:18:42.721Z,24.93
2022-08-08T16:23:41.993Z,25.38
2022-08-08T16:28:41.761Z,25.09
2022-08-08T16:33:40.025Z,25.53
2022-08-08T16:38:47.203Z,25.92
2022-08-08T16:43:53.236Z,25.74
2022-08-08T16:48:53.288Z,25.83
2022-08-08T16:55:01.402Z,25.33
2022-08-08T16:59:40.392Z,25.11
2022-08-08T17:05:31.168Z,25.63
2022-08-08T17:10:58.653Z,25.95
2022-08-08T17:16:16.336Z,25.70
2022-08-08T17:21:17.517Z,25.89
2022-08-08T17:26:29.425Z,25.76
2022-08-08T17:31:44.683Z,25.54
2022-08-08T17:37:29.032Z,25.39
2022-08-08T17:42:47.221Z,25.22
2022-08-08T17:47:50.998Z,24.84
2022-08-08T17:53:00.958Z,24.81
2022-08-08T17:57:58.888Z,25.06
2022-08-08T18:03:08.877Z,24.18
2022-08-08T18:08:36.895Z,23.96
2022-08-08T18:14:32.366Z,24.17
2022-08-08T18:19:45.714Z,24.68
2022-08-08T18:31:08.251Z,25.78
2022-08-08T18:36:23.120Z,26.01
2022-08-08T18:41:51.294Z,26.74
2022-08-08T18:46:55.067Z,26.77
2022-08-08T18:51:55.836Z,26.88
2022-08-08T18:56:54.775Z,27.23
2022-08-08T19:02:28.713Z,27.45
2022-08-08T19:07:15.307Z,27.38
2022-08-08T19:12:13.453Z,28.16
2022-08-08T19:17:11.891Z,28.52
2022-08-08T19:22:28.026Z,29.42
2022-08-08T19:27:55.747Z,29.74
2022-08-08T19:32:47.688Z,32.67
2022-08-08T19:37:57.324Z,33.59
2022-08-08T19:42:55.124Z,34.25
2022-08-08T19:47:54.918Z,34.33
2022-08-08T19:52:59.853Z,34.31
2022-08-08T19:57:59.490Z,33.89
2022-08-08T20:02:57.838Z,34.37
2022-08-08T20:08:29.074Z,34.71
2022-08-08T20:14:12.924Z,34.69
2022-08-08T20:18:39.908Z,35.04
2022-08-08T20:23:52.282Z,35.48
2022-08-08T20:28:50.918Z,35.87
2022-08-08T20:34:28.643Z,36.42
2022-08-08T20:39:06.340Z,37.05
2022-08-08T20:44:04.530Z,37.69
2022-08-08T20:49:12.896Z,37.55
2022-08-08T20:54:15.848Z,37.53
2022-08-08T20:59:24.732Z,37.99
2022-08-08T21:04:23.524Z,37.41
2022-08-08T21:09:31.763Z,37.30
2022-08-08T21:14:43.824Z,37.73
2022-08-08T21:19:49.529Z,38.27
2022-08-08T21:24:56.210Z,38.63
2022-08-08T21:30:05.669Z,39.35
2022-08-08T21:36:17.368Z,39.92
2022-08-08T21:40:31.196Z,40.18
2022-08-08T21:48:01.041Z,40.84
2022-08-08T21:50:46.889Z,41.26
2022-08-08T21:56:19.494Z,41.79
2022-08-08T22:01:27.242Z,42.68
2022-08-08T22:06:28.695Z,42.98
2022-08-08T22:12:02.699Z,42.59
2022-08-08T22:16:46.750Z,43.15
2022-08-08T22:21:50.150Z,43.45
2022-08-08T22:27:01.584Z,43.76
2022-08-08T22:32:02.591Z,44.25
2022-08-08T22:37:01.321Z,44.90
2022-08-08T22:42:00.312Z,45.14
2022-08-08T22:46:57.577Z,44.99
2022-08-08T22:51:55.211Z,44.77
2022-08-08T22:56:54.627Z,45.09
2022-08-08T23:02:03.330Z,45.40
2022-08-08T23:07:03.063Z,45.56
2022-08-08T23:12:29.129Z,45.59
2022-08-08T23:17:25.598Z,45.75
2022-08-08T23:22:28.655Z,46.05
2022-08-08T23:27:46.463Z,46.08
2022-08-08T23:32:47.106Z,46.44
2022-08-08T23:37:54.286Z,46.74
2022-08-08T23:43:02.793Z,46.74
2022-08-08T23:49:03.337Z,46.92
2022-08-08T23:54:39.631Z,47.56
2022-08-08T23:58:58.170Z,47.73
